createdAt,value
2018-03-17T00:00:47.933Z,11.80
2018-03-17T00:03:14.259Z,10.35
2018-03-17T00:05:40.474Z,10.52
2018-03-17T00:08:06.683Z,12.40
2018-03-17T00:10:34.366Z,11.15
2018-03-17T00:13:01.361Z,11.00
2018-03-17T00:15:27.613Z,11.10
2018-03-17T00:17:53.862Z,12.30
2018-03-17T00:20:20.117Z,10.35
2018-03-17T00:22:46.327Z,11.10
2018-03-17T00:25:12.587Z,11.05
2018-03-17T00:27:38.804Z,8.18
2018-03-17T00:30:05.104Z,10.52
2018-03-17T00:32:31.374Z,10.05
2018-03-17T00:34:58.359Z,10.57
2018-03-17T00:37:24.615Z,9.98
2018-03-17T00:39:50.844Z,9.65
2018-03-17T00:42:17.089Z,9.15
2018-03-17T00:44:43.359Z,11.05
2018-03-17T00:47:09.614Z,9.13
2018-03-17T00:49:35.941Z,9.45
2018-03-17T00:52:02.924Z,10.25
2018-03-17T00:54:30.041Z,9.10
2018-03-17T00:56:56.283Z,9.30
2018-03-17T00:59:22.500Z,9.63
2018-03-17T01:01:48.922Z,9.93
2018-03-17T01:04:15.899Z,9.73
2018-03-17T01:06:42.857Z,10.13
2018-03-17T01:09:09.957Z,8.48
2018-03-17T01:11:36.206Z,9.43
2018-03-17T01:14:02.460Z,10.18
2018-03-17T01:16:28.693Z,9.95
2018-03-17T01:18:55.244Z,9.15
2018-03-17T01:21:21.461Z,8.05
2018-03-17T01:23:47.836Z,9.00
2018-03-17T01:26:17.702Z,9.98
2018-03-17T01:28:44.727Z,9.30
2018-03-17T01:31:11.178Z,9.48
2018-03-17T01:33:38.197Z,9.13
2018-03-17T01:36:04.566Z,9.50
2018-03-17T01:38:32.062Z,8.60
2018-03-17T01:40:58.321Z,8.80
2018-03-17T01:43:24.563Z,9.38
2018-03-17T01:45:51.517Z,8.45
2018-03-17T01:48:17.759Z,7.50
2018-03-17T01:50:44.023Z,9.23
2018-03-17T01:53:10.307Z,7.30
2018-03-17T01:55:36.524Z,9.88
2018-03-17T01:58:02.763Z,8.70
2018-03-17T02:00:29.179Z,8.07
2018-03-17T02:02:55.395Z,7.97
2018-03-17T02:05:22.365Z,8.60
2018-03-17T02:07:49.332Z,8.90
2018-03-17T02:10:15.581Z,8.13
2018-03-17T02:12:41.829Z,7.97
2018-03-17T02:15:08.048Z,7.70
2018-03-17T02:17:35.043Z,8.07
2018-03-17T02:20:01.270Z,7.28
2018-03-17T02:22:27.508Z,8.15
2018-03-17T02:24:53.830Z,8.73
2018-03-17T02:29:53.549Z,8.43
2018-03-17T02:32:20.333Z,8.50
2018-03-17T02:34:46.361Z,9.60
2018-03-17T02:37:12.377Z,8.55
2018-03-17T02:39:39.162Z,8.25
2018-03-17T02:42:05.201Z,8.98
2018-03-17T02:44:31.229Z,9.18
2018-03-17T02:46:58.854Z,8.52
2018-03-17T02:49:25.861Z,9.95
2018-03-17T02:51:52.122Z,9.43
2018-03-17T02:54:18.140Z,9.05
2018-03-17T02:56:44.286Z,8.98
2018-03-17T02:59:10.321Z,9.82
2018-03-17T03:01:36.359Z,9.80
2018-03-17T03:04:02.470Z,9.45
2018-03-17T03:06:28.540Z,9.25
2018-03-17T03:08:54.578Z,9.70
2018-03-17T03:11:21.345Z,9.73
2018-03-17T03:13:47.488Z,9.88
2018-03-17T03:16:13.638Z,9.95
2018-03-17T03:18:39.659Z,9.70
2018-03-17T03:21:06.425Z,8.35
2018-03-17T03:23:32.475Z,8.32
2018-03-17T03:25:58.505Z,8.27
2018-03-17T03:28:24.541Z,8.75
2018-03-17T03:30:52.398Z,8.45
2018-03-17T03:33:18.433Z,8.00
2018-03-17T03:35:44.462Z,9.18
2018-03-17T03:38:10.562Z,8.52
2018-03-17T03:40:37.339Z,7.85
2018-03-17T03:43:03.385Z,8.50
2018-03-17T03:45:29.476Z,8.00
2018-03-17T03:47:56.438Z,8.40
2018-03-17T03:50:23.228Z,8.43
2018-03-17T03:52:49.266Z,8.27
2018-03-17T03:55:15.320Z,7.25
2018-03-17T03:57:41.353Z,9.30
2018-03-17T04:00:07.602Z,9.50
2018-03-17T04:02:33.866Z,8.75
2018-03-17T04:05:00.230Z,9.48
2018-03-17T04:07:27.188Z,9.98
2018-03-17T04:09:53.962Z,8.65
2018-03-17T04:12:19.998Z,8.80
2018-03-17T04:14:46.016Z,8.75
2018-03-17T04:17:13.013Z,8.90
2018-03-17T04:19:39.078Z,9.10
2018-03-17T04:22:06.093Z,8.43
2018-03-17T04:24:32.150Z,9.30
2018-03-17T04:26:58.313Z,8.68
2018-03-17T04:29:24.566Z,9.75
2018-03-17T04:31:51.569Z,10.10
2018-03-17T04:34:17.620Z,8.63
2018-03-17T04:36:43.865Z,8.77
2018-03-17T04:39:10.138Z,8.90
2018-03-17T04:41:36.342Z,8.95
2018-03-17T04:44:04.057Z,7.53
2018-03-17T04:46:30.293Z,10.25
2018-03-17T04:48:56.513Z,8.60
2018-03-17T04:51:22.745Z,9.43
2018-03-17T04:53:48.973Z,8.95
2018-03-17T04:56:15.193Z,9.57
2018-03-17T04:58:42.184Z,8.80
2018-03-17T05:01:08.401Z,8.23
2018-03-17T05:03:35.373Z,9.77
2018-03-17T05:06:01.608Z,8.80
2018-03-17T05:08:27.882Z,8.32
2018-03-17T05:10:54.097Z,8.15
2018-03-17T05:13:20.325Z,8.60
2018-03-17T05:15:47.273Z,8.68
2018-03-17T05:18:13.532Z,9.60
2018-03-17T05:20:39.793Z,9.00
2018-03-17T05:23:06.047Z,8.77
2018-03-17T05:25:32.293Z,7.93
2018-03-17T05:27:58.537Z,8.05
2018-03-17T05:30:24.789Z,9.02
2018-03-17T05:32:51.034Z,7.65
2018-03-17T05:35:17.284Z,7.85
2018-03-17T05:37:43.596Z,8.45
2018-03-17T05:40:09.910Z,9.13
2018-03-17T05:42:36.105Z,8.55
2018-03-17T05:45:03.134Z,8.70
2018-03-17T05:47:29.369Z,8.25
2018-03-17T05:49:55.591Z,7.68
2018-03-17T05:52:21.816Z,7.68
2018-03-17T05:54:48.049Z,7.57
2018-03-17T05:57:14.286Z,7.78
2018-03-17T05:59:40.542Z,7.47
2018-03-17T06:02:06.803Z,8.10
2018-03-17T06:04:33.724Z,7.07
2018-03-17T06:06:59.966Z,8.38
2018-03-17T06:09:26.148Z,7.97
2018-03-17T06:11:52.384Z,7.18
2018-03-17T06:14:18.612Z,7.22
2018-03-17T06:16:44.870Z,7.15
2018-03-17T06:19:12.010Z,7.55
2018-03-17T06:21:38.256Z,8.32
2018-03-17T06:24:04.564Z,7.57
2018-03-17T06:26:30.891Z,8.00
2018-03-17T06:28:57.865Z,8.40
2018-03-17T06:31:24.837Z,7.60
2018-03-17T06:33:51.828Z,7.07
2018-03-17T06:36:18.058Z,7.80
2018-03-17T06:38:45.023Z,9.20
2018-03-17T06:41:11.176Z,7.45
2018-03-17T06:43:37.197Z,8.85
2018-03-17T06:46:03.468Z,7.75
2018-03-17T06:48:29.732Z,7.62
2018-03-17T06:50:55.990Z,8.60
2018-03-17T06:53:22.230Z,6.97
2018-03-17T06:55:48.482Z,7.55
2018-03-17T06:58:15.474Z,8.10
2018-03-17T07:00:41.685Z,8.43
2018-03-17T07:03:08.624Z,7.70
2018-03-17T07:05:34.867Z,7.50
2018-03-17T07:08:01.896Z,7.85
2018-03-17T07:10:28.112Z,8.23
2018-03-17T07:12:54.336Z,7.45
2018-03-17T07:15:20.556Z,8.70
2018-03-17T07:17:46.777Z,8.07
2018-03-17T07:20:13.130Z,7.78
2018-03-17T07:22:40.089Z,6.62
2018-03-17T07:25:06.322Z,8.95
2018-03-17T07:27:33.276Z,7.95
2018-03-17T07:29:59.526Z,7.60
2018-03-17T07:32:25.756Z,7.95
2018-03-17T07:34:52.017Z,7.37
2018-03-17T07:37:18.245Z,7.68
2018-03-17T07:39:44.568Z,8.20
2018-03-17T07:42:11.581Z,7.35
2018-03-17T07:44:37.811Z,6.90
2018-03-17T07:47:04.113Z,8.43
2018-03-17T07:49:30.377Z,7.65
2018-03-17T07:51:57.332Z,7.60
2018-03-17T07:54:23.601Z,8.25
2018-03-17T07:56:49.840Z,7.90
2018-03-17T07:59:16.077Z,7.97
2018-03-17T08:01:42.346Z,7.40
2018-03-17T08:04:08.594Z,8.55
2018-03-17T08:06:34.852Z,8.23
2018-03-17T08:09:01.862Z,7.12
2018-03-17T08:11:28.081Z,7.97
2018-03-17T08:13:54.382Z,7.47
2018-03-17T08:16:22.032Z,8.73
2018-03-17T08:18:48.316Z,7.62
2018-03-17T08:21:15.313Z,8.10
2018-03-17T08:23:41.544Z,7.85
2018-03-17T08:26:07.826Z,8.35
2018-03-17T08:28:34.807Z,8.07
2018-03-17T08:31:01.798Z,8.93
2018-03-17T08:33:28.038Z,8.75
2018-03-17T08:35:54.277Z,8.43
2018-03-17T08:38:20.505Z,7.07
2018-03-17T08:40:47.479Z,8.45
2018-03-17T08:43:13.725Z,7.80
2018-03-17T08:45:39.957Z,8.80
2018-03-17T08:48:06.188Z,8.20
2018-03-17T08:50:33.161Z,8.45
2018-03-17T08:53:01.719Z,8.70
2018-03-17T08:55:27.916Z,7.78
2018-03-17T08:57:54.139Z,9.00
2018-03-17T09:00:20.372Z,8.00
2018-03-17T09:02:47.411Z,8.15
2018-03-17T09:05:13.877Z,8.65
2018-03-17T09:07:40.166Z,7.57
2018-03-17T09:10:06.393Z,7.10
2018-03-17T09:12:33.118Z,6.85
2018-03-17T09:15:00.017Z,8.40
2018-03-17T09:17:26.201Z,8.43
2018-03-17T09:19:52.465Z,7.72
2018-03-17T09:22:19.637Z,7.70
2018-03-17T09:24:47.466Z,7.78
2018-03-17T09:27:14.474Z,7.55
2018-03-17T09:29:40.703Z,7.28
2018-03-17T09:32:06.991Z,7.25
2018-03-17T09:34:33.201Z,7.72
2018-03-17T09:36:59.471Z,7.93
2018-03-17T09:39:25.937Z,7.85
2018-03-17T09:41:52.921Z,7.25
2018-03-17T09:44:19.162Z,8.27
2018-03-17T09:46:46.109Z,6.85
2018-03-17T09:49:12.415Z,8.07
2018-03-17T09:51:38.766Z,7.90
2018-03-17T09:54:05.101Z,7.30
2018-03-17T09:56:32.094Z,8.20
2018-03-17T09:58:58.397Z,5.85
2018-03-17T10:01:24.646Z,7.93
2018-03-17T10:03:50.979Z,7.47
2018-03-17T10:06:17.245Z,7.75
2018-03-17T10:08:43.569Z,7.03
2018-03-17T10:11:09.790Z,6.78
2018-03-17T10:13:36.034Z,7.03
2018-03-17T10:16:05.558Z,6.70
2018-03-17T10:18:31.777Z,6.43
2018-03-17T10:21:00.224Z,6.72
2018-03-17T10:23:27.213Z,7.15
2018-03-17T10:25:53.458Z,7.47
2018-03-17T10:28:19.728Z,7.03
2018-03-17T10:30:45.930Z,7.37
2018-03-17T10:33:12.157Z,6.32
2018-03-17T10:35:39.118Z,6.82
2018-03-17T10:38:05.375Z,7.28
2018-03-17T10:40:31.610Z,6.72
2018-03-17T10:42:57.912Z,6.22
2018-03-17T10:45:24.920Z,7.35
2018-03-17T10:47:52.603Z,7.32
2018-03-17T10:50:20.821Z,7.75
2018-03-17T10:52:47.133Z,8.27
2018-03-17T10:55:13.189Z,7.60
2018-03-17T10:57:39.328Z,6.18
2018-03-17T11:00:05.515Z,6.50
2018-03-17T11:02:38.395Z,8.05
2018-03-17T11:05:05.398Z,7.72
2018-03-17T11:07:31.671Z,6.15
2018-03-17T11:09:58.022Z,6.57
2018-03-17T11:12:24.229Z,7.03
2018-03-17T11:14:50.461Z,7.37
2018-03-17T11:17:16.693Z,7.07
2018-03-17T11:19:42.934Z,7.78
2018-03-17T11:22:09.249Z,8.65
2018-03-17T11:24:36.230Z,8.32
2018-03-17T11:27:03.182Z,7.43
2018-03-17T11:29:29.533Z,8.50
2018-03-17T11:31:55.754Z,8.20
2018-03-17T11:34:22.000Z,8.82
2018-03-17T11:36:48.969Z,8.07
2018-03-17T11:39:15.236Z,8.25
2018-03-17T11:41:41.339Z,7.82
2018-03-17T11:44:07.587Z,7.32
2018-03-17T11:46:34.705Z,6.68
2018-03-17T11:49:00.930Z,7.90
2018-03-17T11:51:27.218Z,8.32
2018-03-17T11:53:54.262Z,8.00
2018-03-17T11:56:20.486Z,7.93
2018-03-17T11:58:46.738Z,8.07
2018-03-17T12:01:12.948Z,8.73
2018-03-17T12:03:39.201Z,7.10
2018-03-17T12:06:05.460Z,8.88
2018-03-17T12:08:32.475Z,8.60
2018-03-17T12:10:58.702Z,8.40
2018-03-17T12:13:24.954Z,7.43
2018-03-17T12:15:52.382Z,8.05
2018-03-17T12:18:19.334Z,7.53
2018-03-17T12:20:45.630Z,8.25
2018-03-17T12:23:11.903Z,7.43
2018-03-17T12:25:38.121Z,7.93
2018-03-17T12:28:04.394Z,8.13
2018-03-17T12:30:30.622Z,8.38
2018-03-17T12:32:57.585Z,8.70
2018-03-17T12:35:23.825Z,7.28
2018-03-17T12:37:50.049Z,7.82
2018-03-17T12:40:16.315Z,8.85
2018-03-17T12:42:42.530Z,7.32
2018-03-17T12:45:09.489Z,8.93
2018-03-17T12:47:35.739Z,7.72
2018-03-17T12:50:01.981Z,7.37
2018-03-17T12:52:28.220Z,8.70
2018-03-17T12:54:54.467Z,7.93
2018-03-17T12:57:20.712Z,7.90
2018-03-17T12:59:46.950Z,7.22
2018-03-17T13:02:13.480Z,7.55
2018-03-17T13:04:39.789Z,8.00
2018-03-17T13:07:06.767Z,7.55
2018-03-17T13:09:33.001Z,8.02
2018-03-17T13:12:00.563Z,7.90
2018-03-17T13:14:26.856Z,7.47
2018-03-17T13:16:53.105Z,8.25
2018-03-17T13:19:29.536Z,9.23
2018-03-17T13:21:55.786Z,7.60
2018-03-17T13:24:22.021Z,8.05
2018-03-17T13:27:00.544Z,8.20
2018-03-17T13:29:27.959Z,7.97
2018-03-17T13:31:54.282Z,7.85
2018-03-17T13:34:20.520Z,7.65
2018-03-17T13:37:00.033Z,8.45
2018-03-17T13:39:26.294Z,7.90
2018-03-17T13:41:53.250Z,8.30
2018-03-17T13:44:19.486Z,8.13
2018-03-17T13:46:45.768Z,8.25
2018-03-17T13:51:44.495Z,7.18
2018-03-17T13:54:10.714Z,7.20
2018-03-17T13:56:36.957Z,8.35
2018-03-17T13:59:03.185Z,7.97
2018-03-17T14:01:29.408Z,8.40
2018-03-17T14:03:55.677Z,7.82
2018-03-17T14:06:26.219Z,7.60
2018-03-17T14:08:56.377Z,7.75
2018-03-17T14:11:22.645Z,8.63
2018-03-17T14:13:48.864Z,7.68
2018-03-17T14:16:15.204Z,7.00
2018-03-17T14:18:41.330Z,7.35
2018-03-17T14:21:07.607Z,8.25
2018-03-17T14:23:33.902Z,7.75
2018-03-17T14:26:00.145Z,6.75
2018-03-17T14:28:28.314Z,8.52
2018-03-17T14:30:55.265Z,9.07
2018-03-17T14:33:22.246Z,7.95
2018-03-17T14:35:48.489Z,8.45
2018-03-17T14:38:14.766Z,7.37
2018-03-17T14:40:40.956Z,7.70
2018-03-17T14:43:07.928Z,7.30
2018-03-17T14:45:38.408Z,6.80
2018-03-17T14:48:04.633Z,8.25
2018-03-17T14:50:30.910Z,7.22
2018-03-17T14:52:57.177Z,8.40
2018-03-17T14:55:23.494Z,9.63
2018-03-17T14:57:49.729Z,8.68
2018-03-17T15:00:15.954Z,8.27
2018-03-17T15:02:46.637Z,8.93
2018-03-17T15:05:13.434Z,7.70
2018-03-17T15:07:39.843Z,6.95
2018-03-17T15:10:06.904Z,8.00
2018-03-17T15:12:32.953Z,9.85
2018-03-17T15:14:59.274Z,6.93
2018-03-17T15:17:25.500Z,6.32
2018-03-17T15:19:51.728Z,8.10
2018-03-17T15:22:17.937Z,8.70
2018-03-17T15:24:44.198Z,7.30
2018-03-17T15:27:10.437Z,7.25
2018-03-17T15:29:36.641Z,6.55
2018-03-17T15:32:03.659Z,8.25
2018-03-17T15:34:30.502Z,8.88
2018-03-17T15:36:57.529Z,7.25
2018-03-17T15:39:23.754Z,7.97
2018-03-17T15:41:49.986Z,6.87
2018-03-17T15:44:16.213Z,6.47
2018-03-17T15:46:42.456Z,7.90
2018-03-17T15:49:08.681Z,7.53
2018-03-17T15:51:34.901Z,8.10
2018-03-17T15:54:02.582Z,8.30
2018-03-17T15:56:31.646Z,7.32
2018-03-17T15:58:57.940Z,7.72
2018-03-17T16:01:24.164Z,7.72
2018-03-17T16:03:51.103Z,7.85
2018-03-17T16:06:17.495Z,7.87
2018-03-17T16:08:43.696Z,6.93
2018-03-17T16:11:10.674Z,7.20
2018-03-17T16:13:36.889Z,8.00
2018-03-17T16:16:03.912Z,8.27
2018-03-17T16:18:30.189Z,7.72
2018-03-17T16:20:57.218Z,9.25
2018-03-17T16:23:23.693Z,7.35
2018-03-17T16:25:50.699Z,6.60
2018-03-17T16:28:16.946Z,9.23
2018-03-17T16:30:43.183Z,9.38
2018-03-17T16:33:09.414Z,7.78
2018-03-17T16:35:36.517Z,7.85
2018-03-17T16:38:02.727Z,6.93
2018-03-17T16:40:28.956Z,7.28
2018-03-17T16:42:55.159Z,8.00
2018-03-17T16:45:22.139Z,6.97
2018-03-17T16:47:48.406Z,7.57
2018-03-17T16:50:18.822Z,8.13
2018-03-17T16:52:45.011Z,7.68
2018-03-17T16:55:12.101Z,7.00
2018-03-17T16:57:38.482Z,9.13
2018-03-17T17:00:05.473Z,8.25
2018-03-17T17:02:31.726Z,7.62
2018-03-17T17:04:58.051Z,8.05
2018-03-17T17:07:24.275Z,8.23
2018-03-17T17:09:50.497Z,7.47
2018-03-17T17:12:20.885Z,10.57
2018-03-17T17:14:47.120Z,14.13
2018-03-17T17:17:13.405Z,9.02
2018-03-17T17:19:43.920Z,9.13
2018-03-17T17:22:10.145Z,8.57
2018-03-17T17:24:36.397Z,8.48
2018-03-17T17:27:02.680Z,8.85
2018-03-17T17:29:28.968Z,7.32
2018-03-17T17:31:55.214Z,7.10
2018-03-17T17:34:21.506Z,6.90
2018-03-17T17:36:47.755Z,7.07
2018-03-17T17:39:14.044Z,9.73
2018-03-17T17:41:40.268Z,8.25
2018-03-17T17:44:06.477Z,7.78
2018-03-17T17:46:32.782Z,8.10
2018-03-17T17:48:59.086Z,7.87
2018-03-17T17:51:26.238Z,6.95
2018-03-17T17:53:52.484Z,7.60
2018-03-17T17:56:18.798Z,7.75
2018-03-17T17:58:45.793Z,8.55
2018-03-17T18:01:12.034Z,8.73
2018-03-17T18:03:38.245Z,8.30
2018-03-17T18:06:04.501Z,8.13
2018-03-17T18:10:56.269Z,9.70
2018-03-17T18:13:22.598Z,8.05
2018-03-17T18:15:48.914Z,8.52
2018-03-17T18:18:15.134Z,8.60
2018-03-17T18:20:41.402Z,7.78
2018-03-17T18:23:08.393Z,7.15
2018-03-17T18:25:34.689Z,8.55
2018-03-17T18:28:01.244Z,8.45
2018-03-17T18:30:28.105Z,9.13
2018-03-17T18:32:55.727Z,7.75
2018-03-17T18:35:22.694Z,8.55
2018-03-17T18:37:49.078Z,7.62
2018-03-17T18:40:16.132Z,8.02
2018-03-17T18:42:42.393Z,7.32
2018-03-17T18:45:08.658Z,7.85
2018-03-17T18:47:35.045Z,7.53
2018-03-17T18:50:01.452Z,8.10
2018-03-17T18:52:29.776Z,7.50
2018-03-17T18:54:56.021Z,8.02
2018-03-17T18:57:22.301Z,7.30
2018-03-17T18:59:49.244Z,8.55
2018-03-17T19:02:15.931Z,8.20
2018-03-17T19:04:42.198Z,7.78
2018-03-17T19:07:08.548Z,7.37
2018-03-17T19:09:34.789Z,8.70
2018-03-17T19:12:01.036Z,7.53
2018-03-17T19:14:28.009Z,7.10
2018-03-17T19:16:54.998Z,8.10
2018-03-17T19:19:21.949Z,7.40
2018-03-17T19:21:49.224Z,7.60
2018-03-17T19:24:16.237Z,8.23
2018-03-17T19:26:42.441Z,8.43
2018-03-17T19:29:08.885Z,8.10
2018-03-17T19:31:35.100Z,7.32
2018-03-17T19:34:01.398Z,8.48
2018-03-17T19:36:27.637Z,7.22
2018-03-17T19:38:53.995Z,8.68
2018-03-17T19:41:20.295Z,9.50
2018-03-17T19:43:50.707Z,8.55
2018-03-17T19:46:17.665Z,7.97
2018-03-17T19:48:44.662Z,7.00
2018-03-17T19:51:11.054Z,7.85
2018-03-17T19:53:37.260Z,6.62
2018-03-17T19:56:03.562Z,7.90
2018-03-17T19:58:29.842Z,8.30
2018-03-17T20:00:56.204Z,8.93
2018-03-17T20:03:22.425Z,8.93
2018-03-17T20:05:48.689Z,7.55
2018-03-17T20:08:14.900Z,7.45
2018-03-17T20:10:41.125Z,8.15
2018-03-17T20:13:08.379Z,8.38
2018-03-17T20:15:34.964Z,7.80
2018-03-17T20:18:01.222Z,7.45
2018-03-17T20:20:27.452Z,7.70
2018-03-17T20:22:53.773Z,8.32
2018-03-17T20:25:20.021Z,8.30
2018-03-17T20:27:46.286Z,8.95
2018-03-17T20:30:12.525Z,7.70
2018-03-17T20:32:38.717Z,7.82
2018-03-17T20:35:06.648Z,8.68
2018-03-17T20:37:33.630Z,7.57
2018-03-17T20:40:00.701Z,7.43
2018-03-17T20:42:27.665Z,7.47
2018-03-17T20:44:53.893Z,7.40
2018-03-17T20:47:20.208Z,8.85
2018-03-17T20:49:47.190Z,7.80
2018-03-17T20:52:13.484Z,8.32
2018-03-17T20:54:39.697Z,8.27
2018-03-17T20:57:06.230Z,8.77
2018-03-17T20:59:32.511Z,8.60
2018-03-17T21:01:58.737Z,9.00
2018-03-17T21:04:24.996Z,9.68
2018-03-17T21:06:51.245Z,9.50
2018-03-17T21:09:19.637Z,7.75
2018-03-17T21:11:45.906Z,7.22
2018-03-17T21:14:12.902Z,7.70
2018-03-17T21:16:39.116Z,8.07
2018-03-17T21:19:05.333Z,7.60
2018-03-17T21:21:32.383Z,9.13
2018-03-17T21:23:58.610Z,7.95
2018-03-17T21:26:24.969Z,8.35
2018-03-17T21:28:51.946Z,9.18
2018-03-17T21:31:18.131Z,9.90
2018-03-17T21:33:44.384Z,8.95
2018-03-17T21:36:10.629Z,8.25
2018-03-17T21:38:37.609Z,10.48
2018-03-17T21:41:03.881Z,8.15
2018-03-17T21:43:30.152Z,8.50
2018-03-17T21:45:56.397Z,8.63
2018-03-17T21:48:23.069Z,9.15
2018-03-17T21:50:49.270Z,6.80
2018-03-17T21:53:15.490Z,8.20
2018-03-17T21:55:41.794Z,8.55
2018-03-17T21:58:08.041Z,7.70
2018-03-17T22:00:34.278Z,9.80
2018-03-17T22:03:00.501Z,9.65
2018-03-17T22:05:26.733Z,10.05
2018-03-17T22:07:52.999Z,8.50
2018-03-17T22:10:19.182Z,8.95
2018-03-17T22:12:45.745Z,9.00
2018-03-17T22:15:12.034Z,9.00
2018-03-17T22:17:38.237Z,9.25
2018-03-17T22:20:04.478Z,7.65
2018-03-17T22:22:30.730Z,8.93
2018-03-17T22:24:56.995Z,8.10
2018-03-17T22:27:23.198Z,9.07
2018-03-17T22:29:52.344Z,9.00
2018-03-17T22:32:18.693Z,9.70
2018-03-17T22:34:46.469Z,9.90
2018-03-17T22:37:12.703Z,9.65
2018-03-17T22:39:40.953Z,9.77
2018-03-17T22:42:07.227Z,10.48
2018-03-17T22:44:33.481Z,9.77
2018-03-17T22:47:00.477Z,9.50
2018-03-17T22:49:26.683Z,10.38
2018-03-17T22:51:53.649Z,10.50
2018-03-17T22:54:19.917Z,8.88
2018-03-17T22:56:46.177Z,9.82
2018-03-17T22:59:17.750Z,9.90
2018-03-17T23:01:44.840Z,11.18
2018-03-17T23:04:10.866Z,10.10
2018-03-17T23:06:36.906Z,9.80
2018-03-17T23:09:03.144Z,9.77
2018-03-17T23:11:30.165Z,10.40
2018-03-17T23:13:56.464Z,10.48
2018-03-17T23:16:22.694Z,10.95
2018-03-17T23:18:49.046Z,9.70
2018-03-17T23:21:15.381Z,9.65
2018-03-17T23:23:41.740Z,11.98
2018-03-17T23:26:08.855Z,11.45
2018-03-17T23:28:35.145Z,10.48
2018-03-17T23:31:02.152Z,10.15
2018-03-17T23:33:28.406Z,9.95
2018-03-17T23:35:54.772Z,10.23
2018-03-17T23:38:21.006Z,10.82
2018-03-17T23:40:47.264Z,9.73
2018-03-17T23:43:13.511Z,10.95
2018-03-17T23:45:40.525Z,9.88
2018-03-17T23:48:06.761Z,10.82
2018-03-17T23:50:33.093Z,10.45
2018-03-17T23:52:59.365Z,9.85
2018-03-17T23:55:25.717Z,10.05
2018-03-17T23:57:51.965Z,9.98
